Terminal Aerodrome Forecast
Issued by NWS

Home | Current Version | Previous Version | Graphics & Text | Print | Product List | Glossary On
Versions: 1 2 3 4 5 6 7 8 9 10 11 12 13 14 15 16 17 18 19 20 21 22 23 24 25 26 27
000
FTUS43 KLOT 200904 AAA
TAFGYY
TAF AMD
KGYY 200904Z 2009/2106 06012KT P6SM VCSH OVC012
     FM201100 06012KT P6SM OVC009
     FM201400 08012G18KT 4SM -SHRA VCTS OVC007CB
     FM201900 14012G18KT P6SM VCSH SCT015 OVC025 PROB30 2021/2024
      3SM TSRA OVC025CB
     FM210000 15008KT P6SM VCSH BKN035
     FM210300 18008KT P6SM SCT025 BKN040=

USA.gov is the U.S. government's official web portal to all federal, state and local government web resources and services.